Time,TemperatureF,DewpointF,PressureIn,WindDirection,WindDirectionDegrees,WindSpeedMPH,WindSpeedGustMPH,Humidity,HourlyPrecipIn,Conditions,Clouds,dailyrainin,SoftwareType,DateUTC
2013-11-02 00:13:00,39.0,37.0,-100.00,NW,315,6.0,9.0,92,0.00,,,-99.99,,2013-11-02 05:13:00,
2013-11-02 00:52:00,38.0,36.0,-100.00,NW,305,6.0,8.0,94,0.00,,,-99.99,,2013-11-02 05:52:00,
2013-11-02 01:12:00,38.0,36.0,-100.00,WNW,295,6.0,9.0,94,0.00,,,-99.99,,2013-11-02 06:12:00,
2013-11-02 01:52:00,37.0,36.0,-100.00,WNW,300,7.0,9.0,95,0.00,,,-99.99,,2013-11-02 06:52:00,
2013-11-02 02:12:00,37.0,36.0,-100.00,WNW,290,5.0,9.0,95,0.00,,,-99.99,,2013-11-02 07:12:00,
2013-11-02 02:52:00,37.0,36.0,-100.00,NW,305,6.0,9.0,95,0.00,,,-99.99,,2013-11-02 07:52:00,
2013-11-02 03:12:00,37.0,36.0,-100.00,WNW,295,6.0,9.0,95,0.00,,,-99.99,,2013-11-02 08:12:00,
2013-11-02 03:52:00,38.0,36.0,-100.00,WNW,300,6.0,9.0,95,0.00,,,-99.99,,2013-11-02 08:52:00,
2013-11-02 04:11:00,38.0,36.0,-100.00,WNW,300,4.0,8.0,95,0.00,,,-99.99,,2013-11-02 09:11:00,
2013-11-02 04:53:00,37.0,36.0,-100.00,West,260,2.0,7.0,96,0.00,,,-99.99,,2013-11-02 09:53:00,
2013-11-02 05:13:00,37.0,36.0,-100.00,West,280,4.0,9.0,96,0.00,,,-99.99,,2013-11-02 10:13:00,
2013-11-02 05:53:00,36.0,35.0,-100.00,NW,305,4.0,8.0,96,0.00,,,-99.99,,2013-11-02 10:53:00,
2013-11-02 06:12:00,35.0,35.0,-100.00,WNW,295,4.0,8.0,96,0.00,,,-99.99,,2013-11-02 11:12:00,
2013-11-02 06:52:00,34.0,33.0,-100.00,WSW,250,0.0,4.0,97,0.00,,,-99.99,,2013-11-02 11:52:00,
2013-11-02 07:12:00,33.0,33.0,-100.00,SW,235,1.0,2.0,98,0.00,,,-99.99,,2013-11-02 12:12:00,
2013-11-02 07:52:00,32.0,31.0,-100.00,West,260,1.0,3.0,98,0.00,,,-99.99,,2013-11-02 12:52:00,
2013-11-02 08:12:00,32.0,31.0,-100.00,WSW,250,2.0,4.0,98,0.00,,,-99.99,,2013-11-02 13:12:00,
2013-11-02 08:52:00,31.0,31.0,-100.00,WSW,255,1.0,3.0,99,0.00,,,-99.99,,2013-11-02 13:52:00,
2013-11-02 09:11:00,32.0,32.0,-100.00,SW,230,0.0,2.0,99,0.00,,,-99.99,,2013-11-02 14:11:00,
2013-11-02 09:52:00,35.0,35.0,-100.00,West,270,3.0,4.0,99,0.00,,,-99.99,,2013-11-02 14:52:00,
2013-11-02 10:11:00,36.0,36.0,-100.00,SW,215,1.0,5.0,99,0.00,,,-99.99,,2013-11-02 15:11:00,
2013-11-02 10:53:00,39.0,36.0,-100.00,NW,305,2.0,6.0,90,0.00,,,-99.99,,2013-11-02 15:53:00,
2013-11-02 11:13:00,40.0,37.0,-100.00,West,260,2.0,4.0,87,0.00,,,-99.99,,2013-11-02 16:13:00,
2013-11-02 11:54:00,44.0,36.0,-100.00,WNW,295,2.0,5.0,74,0.00,,,-99.99,,2013-11-02 16:54:00,
2013-11-02 12:12:00,44.0,36.0,-100.00,WNW,285,2.0,6.0,73,0.00,,,-99.99,,2013-11-02 17:12:00,
2013-11-02 12:53:00,48.0,36.0,-100.00,WSW,240,1.0,5.0,65,0.00,,,-99.99,,2013-11-02 17:53:00,
2013-11-02 13:12:00,49.0,37.0,-100.00,WNW,290,1.0,7.0,64,0.00,,,-99.99,,2013-11-02 18:12:00,
2013-11-02 13:52:00,51.0,37.0,-100.00,SW,235,2.0,6.0,58,0.00,,,-99.99,,2013-11-02 18:52:00,
2013-11-02 14:11:00,50.0,36.0,-100.00,SW,230,4.0,9.0,57,0.00,,,-99.99,,2013-11-02 19:11:00,
2013-11-02 14:52:00,52.0,36.0,-100.00,West,280,4.0,9.0,53,0.00,,,-99.99,,2013-11-02 19:52:00,
2013-11-02 15:12:00,52.0,36.0,-100.00,West,275,3.0,8.0,53,0.00,,,-99.99,,2013-11-02 20:12:00,
2013-11-02 15:53:00,53.0,34.0,-100.00,WSW,255,3.0,9.0,48,0.00,,,-99.99,,2013-11-02 20:53:00,
2013-11-02 16:12:00,54.0,34.0,-100.00,WSW,250,2.0,6.0,46,0.00,,,-99.99,,2013-11-02 21:12:00,
2013-11-02 16:54:00,54.0,32.0,-100.00,WNW,300,4.0,6.0,42,0.00,,,-99.99,,2013-11-02 21:54:00,
2013-11-02 17:13:00,55.0,32.0,-100.00,WSW,245,2.0,6.0,41,0.00,,,-99.99,,2013-11-02 22:13:00,
2013-11-02 17:54:00,54.0,31.0,-100.00,SW,225,1.0,4.0,41,0.00,,,-99.99,,2013-11-02 22:54:00,
2013-11-02 18:12:00,53.0,30.0,-100.00,SSW,205,1.0,4.0,41,0.00,,,-99.99,,2013-11-02 23:12:00,
2013-11-02 18:52:00,46.0,31.0,-100.00,South,170,1.0,2.0,54,0.00,,,-99.99,,2013-11-02 23:52:00,
2013-11-02 19:11:00,45.0,31.0,-100.00,SSE,150,2.0,3.0,57,0.00,,,-99.99,,2013-11-03 00:11:00,
2013-11-02 19:52:00,42.0,32.0,-100.00,ESE,115,2.0,4.0,68,0.00,,,-99.99,,2013-11-03 00:52:00,
2013-11-02 20:11:00,41.0,32.0,-100.00,ESE,115,2.0,4.0,69,0.00,,,-99.99,,2013-11-03 01:11:00,
2013-11-02 20:52:00,41.0,33.0,-100.00,ESE,120,3.0,6.0,75,0.00,,,-99.99,,2013-11-03 01:52:00,
2013-11-02 21:11:00,36.0,29.0,-100.00,ESE,120,3.0,6.0,76,0.00,,,-99.99,,2013-11-03 02:11:00,
2013-11-02 21:52:00,38.0,34.0,-100.00,ESE,105,2.0,6.0,84,0.00,,,-99.99,,2013-11-03 02:52:00,
2013-11-02 22:11:00,38.0,34.0,-100.00,ESE,115,3.0,4.0,85,0.00,,,-99.99,,2013-11-03 03:11:00,
2013-11-02 22:54:00,37.0,35.0,-100.00,ESE,115,2.0,6.0,92,0.00,,,-99.99,,2013-11-03 03:54:00,
2013-11-02 23:02:00,-999.0,-99.9,-100.00,ESE,115,4.0,6.0,-999,-99.99,,,-99.99,,2013-11-03 04:02:00,
2013-11-02 23:13:00,36.0,35.0,-100.00,ESE,115,4.0,6.0,92,0.00,,,-99.99,,2013-11-03 04:13:00,
2013-11-02 23:52:00,36.0,35.0,-100.00,ESE,110,4.0,7.0,94,0.00,,,-99.99,,2013-11-03 04:52:00,